createdAt,value
2018-08-23T00:01:52.549Z,84.53
2018-08-23T00:04:25.185Z,88.23
2018-08-23T00:07:02.905Z,85.60
2018-08-23T00:09:38.328Z,83.77
2018-08-23T00:12:10.734Z,88.50
2018-08-23T00:14:43.285Z,87.70
2018-08-23T00:17:15.560Z,88.40
2018-08-23T00:19:48.866Z,89.97
2018-08-23T00:22:28.027Z,87.67
2018-08-23T00:24:59.964Z,88.83
2018-08-23T00:27:33.303Z,86.80
2018-08-23T00:30:05.870Z,87.63
2018-08-23T00:32:38.330Z,84.60
2018-08-23T00:35:15.335Z,85.80
2018-08-23T00:37:48.065Z,85.30
2018-08-23T00:40:20.035Z,84.77
2018-08-23T00:42:56.364Z,89.33
2018-08-23T00:45:28.700Z,87.10
2018-08-23T00:48:01.057Z,88.73
2018-08-23T00:51:04.522Z,91.93
2018-08-23T00:53:38.366Z,94.13
2018-08-23T00:56:18.547Z,97.00
2018-08-23T00:58:55.423Z,93.00
2018-08-23T01:01:27.458Z,97.87
2018-08-23T01:03:59.745Z,98.70
2018-08-23T01:06:45.554Z,103.23
2018-08-23T01:09:17.962Z,100.10
2018-08-23T01:11:50.473Z,104.17
2018-08-23T01:14:23.006Z,102.97
2018-08-23T01:17:07.043Z,98.73
2018-08-23T01:20:09.985Z,97.10
2018-08-23T01:22:50.363Z,98.70
2018-08-23T01:25:23.015Z,99.50
2018-08-23T01:27:55.632Z,99.83
2018-08-23T01:30:28.104Z,96.37
2018-08-23T01:33:00.780Z,96.00
2018-08-23T01:35:33.367Z,95.53
2018-08-23T01:38:05.328Z,90.57
2018-08-23T01:40:37.441Z,90.17
2018-08-23T01:43:09.854Z,92.33
2018-08-23T01:45:42.839Z,93.00
2018-08-23T01:48:15.483Z,89.80
2018-08-23T01:50:48.273Z,87.27
2018-08-23T01:53:21.869Z,84.63
2018-08-23T01:55:54.674Z,93.63
2018-08-23T01:58:26.647Z,86.17
2018-08-23T02:01:14.243Z,89.97
2018-08-23T02:03:46.810Z,87.43
2018-08-23T02:06:19.094Z,87.00
2018-08-23T02:08:51.928Z,84.83
2018-08-23T02:11:24.466Z,89.00
2018-08-23T02:13:56.729Z,84.77
2018-08-23T02:16:33.518Z,91.47
2018-08-23T02:19:05.533Z,89.63
2018-08-23T02:21:38.462Z,89.53
2018-08-23T02:24:11.109Z,92.23
2018-08-23T02:26:45.010Z,97.67
2018-08-23T02:29:22.392Z,94.27
2018-08-23T02:31:54.948Z,100.67
2018-08-23T02:34:31.443Z,92.20
2018-08-23T02:37:04.023Z,95.97
2018-08-23T02:39:36.023Z,95.57
2018-08-23T02:42:09.601Z,95.47
2018-08-23T02:44:42.142Z,97.67
2018-08-23T02:47:15.432Z,91.47
2018-08-23T02:49:48.408Z,94.47
2018-08-23T02:52:21.750Z,99.57
2018-08-23T02:54:54.208Z,98.93
2018-08-23T02:57:26.078Z,92.20
2018-08-23T02:59:58.826Z,99.00
2018-08-23T03:02:31.299Z,96.87
2018-08-23T03:05:04.659Z,100.93
2018-08-23T03:07:37.216Z,101.80
2018-08-23T03:10:09.668Z,102.30
2018-08-23T03:12:42.175Z,97.50
2018-08-23T03:15:15.497Z,99.17
2018-08-23T03:17:52.470Z,94.40
2018-08-23T03:20:25.200Z,93.37
2018-08-23T03:22:58.205Z,94.30
2018-08-23T03:25:30.502Z,98.47
2018-08-23T03:28:03.082Z,98.47
2018-08-23T03:30:35.652Z,101.60
2018-08-23T03:33:07.780Z,102.13
2018-08-23T03:35:40.449Z,105.10
2018-08-23T03:38:12.972Z,106.63
2018-08-23T03:40:45.870Z,104.97
2018-08-23T03:43:18.357Z,103.50
2018-08-23T03:45:50.919Z,111.40
2018-08-23T03:48:23.861Z,107.70
2018-08-23T03:50:56.258Z,114.27
2018-08-23T03:53:41.543Z,104.87
2018-08-23T03:56:14.584Z,103.77
2018-08-23T03:58:47.284Z,104.93
2018-08-23T04:01:19.660Z,106.77
2018-08-23T04:03:53.177Z,115.93
2018-08-23T04:06:34.657Z,104.90
2018-08-23T04:09:09.912Z,106.97
2018-08-23T04:11:42.552Z,105.93
2018-08-23T04:14:15.127Z,115.47
2018-08-23T04:16:47.317Z,109.03
2018-08-23T04:19:20.049Z,113.60
2018-08-23T04:21:52.689Z,114.83
2018-08-23T04:24:25.525Z,113.30
2018-08-23T04:26:57.938Z,114.90
2018-08-23T04:29:36.663Z,119.87
2018-08-23T04:32:09.351Z,111.93
2018-08-23T04:34:42.473Z,117.27
2018-08-23T04:37:15.055Z,118.33
2018-08-23T04:39:52.576Z,122.67
2018-08-23T04:42:25.620Z,117.73
2018-08-23T04:44:58.221Z,116.60
2018-08-23T04:47:30.635Z,112.07
2018-08-23T04:50:03.202Z,113.83
2018-08-23T04:52:35.483Z,117.77
2018-08-23T04:55:07.887Z,127.70
2018-08-23T04:57:40.245Z,123.70
2018-08-23T05:00:13.225Z,114.33
2018-08-23T05:02:45.475Z,129.73
2018-08-23T05:05:19.269Z,127.67
2018-08-23T05:07:51.702Z,135.60
2018-08-23T05:10:23.860Z,139.97
2018-08-23T05:12:56.234Z,127.87
2018-08-23T05:15:29.026Z,135.83
2018-08-23T05:18:01.865Z,148.00
2018-08-23T05:20:34.062Z,137.70
2018-08-23T05:23:06.745Z,137.90
2018-08-23T05:25:39.241Z,143.77
2018-08-23T05:28:18.258Z,139.57
2018-08-23T05:30:51.236Z,138.63
2018-08-23T05:33:24.505Z,131.93
2018-08-23T05:35:57.218Z,137.00
2018-08-23T05:38:30.023Z,142.87
2018-08-23T05:41:06.757Z,142.10
2018-08-23T05:43:39.518Z,141.40
2018-08-23T05:46:12.241Z,147.77
2018-08-23T05:48:44.960Z,146.17
2018-08-23T05:51:18.152Z,148.77
2018-08-23T05:53:52.420Z,155.07
2018-08-23T05:56:24.928Z,160.70
2018-08-23T05:59:03.028Z,150.47
2018-08-23T06:01:35.561Z,154.40
2018-08-23T06:04:08.195Z,152.13
2018-08-23T06:06:40.902Z,155.63
2018-08-23T06:09:17.597Z,165.20
2018-08-23T06:11:50.373Z,158.20
2018-08-23T06:14:23.468Z,153.07
2018-08-23T06:16:58.902Z,168.93
2018-08-23T06:19:31.584Z,159.30
2018-08-23T06:22:04.215Z,167.97
2018-08-23T06:24:36.720Z,157.70
2018-08-23T06:27:09.198Z,158.97
2018-08-23T06:29:41.943Z,160.83
2018-08-23T06:32:14.970Z,170.43
2018-08-23T06:34:53.203Z,160.00
2018-08-23T06:37:25.750Z,154.30
2018-08-23T06:39:58.419Z,160.40
2018-08-23T06:42:44.473Z,157.77
2018-08-23T06:45:16.964Z,159.30
2018-08-23T06:47:53.917Z,165.33
2018-08-23T06:50:27.712Z,167.53
2018-08-23T06:53:00.106Z,169.40
2018-08-23T06:55:35.850Z,166.43
2018-08-23T06:58:08.004Z,163.07
2018-08-23T07:00:40.524Z,163.53
2018-08-23T07:03:12.872Z,168.57
2018-08-23T07:05:45.640Z,168.90
2018-08-23T07:08:18.051Z,161.70
2018-08-23T07:10:50.929Z,171.83
2018-08-23T07:13:23.640Z,162.93
2018-08-23T07:16:02.076Z,167.53
2018-08-23T07:18:35.074Z,156.77
2018-08-23T07:21:07.423Z,172.03
2018-08-23T07:23:40.015Z,168.63
2018-08-23T07:26:12.235Z,168.47
2018-08-23T07:28:44.824Z,165.07
2018-08-23T07:31:17.417Z,169.23
2018-08-23T07:33:52.242Z,163.07
2018-08-23T07:36:31.169Z,163.90
2018-08-23T07:39:03.248Z,169.17
2018-08-23T07:41:35.714Z,168.20
2018-08-23T07:44:08.070Z,171.10
2018-08-23T07:46:40.215Z,175.90
2018-08-23T07:49:12.873Z,171.73
2018-08-23T07:51:45.877Z,170.67
2018-08-23T07:54:19.853Z,170.47
2018-08-23T07:56:52.444Z,176.20
2018-08-23T07:59:24.868Z,179.80
2018-08-23T08:01:57.036Z,175.23
2018-08-23T08:04:29.460Z,168.43
2018-08-23T08:07:02.268Z,177.57
2018-08-23T08:09:35.150Z,179.73
2018-08-23T08:12:11.705Z,176.93
2018-08-23T08:14:44.287Z,179.70
2018-08-23T08:17:21.328Z,169.03
2018-08-23T08:19:57.013Z,178.23
2018-08-23T08:22:29.520Z,183.70
2018-08-23T08:25:15.873Z,179.43
2018-08-23T08:27:48.704Z,192.70
2018-08-23T08:30:26.469Z,177.63
2018-08-23T08:32:58.792Z,196.50
2018-08-23T08:35:31.087Z,198.13
2018-08-23T08:38:03.371Z,182.87
2018-08-23T08:40:35.883Z,191.77
2018-08-23T08:43:08.296Z,194.13
2018-08-23T08:45:40.710Z,193.70
2018-08-23T08:48:35.634Z,200.17
2018-08-23T08:51:20.171Z,197.37
2018-08-23T08:53:52.764Z,195.10
2018-08-23T08:56:30.388Z,194.73
2018-08-23T08:59:03.014Z,211.77
2018-08-23T09:01:36.024Z,205.00
2018-08-23T09:04:08.289Z,203.27
2018-08-23T09:09:35.898Z,209.30
2018-08-23T09:12:09.645Z,205.20
2018-08-23T09:14:43.367Z,207.63
2018-08-23T09:17:29.412Z,203.50
2018-08-23T09:20:08.285Z,214.33
2018-08-23T09:22:45.242Z,213.50
2018-08-23T09:25:22.976Z,206.73
2018-08-23T09:27:55.693Z,195.93
2018-08-23T09:30:29.426Z,203.83
2018-08-23T09:33:06.644Z,211.37
2018-08-23T09:35:39.298Z,217.00
2018-08-23T09:38:16.064Z,219.57
2018-08-23T09:40:48.458Z,212.27
2018-08-23T09:43:20.820Z,219.50
2018-08-23T09:45:54.759Z,219.03
2018-08-23T09:48:27.295Z,209.43
2018-08-23T09:51:00.080Z,201.07
2018-08-23T09:53:32.548Z,207.67
2018-08-23T09:56:05.073Z,202.57
2018-08-23T09:58:42.243Z,204.93
2018-08-23T10:01:19.522Z,202.90
2018-08-23T10:03:56.195Z,199.20
2018-08-23T10:06:32.832Z,195.07
2018-08-23T10:09:17.200Z,191.70
2018-08-23T10:11:54.015Z,189.60
2018-08-23T10:14:31.026Z,198.30
2018-08-23T10:17:07.953Z,199.03
2018-08-23T10:19:44.743Z,200.40
2018-08-23T10:22:34.285Z,194.63
2018-08-23T10:25:41.635Z,200.10
2018-08-23T10:28:15.373Z,199.40
2018-08-23T10:30:47.862Z,204.70
2018-08-23T10:33:20.531Z,197.73
2018-08-23T10:35:54.194Z,193.57
2018-08-23T10:38:27.644Z,195.07
2018-08-23T10:41:07.247Z,195.30
2018-08-23T10:43:47.846Z,203.13
2018-08-23T10:46:20.220Z,185.43
2018-08-23T10:48:52.563Z,191.30
2018-08-23T10:51:25.183Z,192.90
2018-08-23T10:53:57.577Z,195.43
2018-08-23T10:56:30.153Z,197.90
2018-08-23T10:59:02.559Z,195.90
2018-08-23T11:01:34.809Z,184.53
2018-08-23T11:04:08.305Z,189.67
2018-08-23T11:06:45.278Z,198.33
2018-08-23T11:09:22.098Z,189.87
2018-08-23T11:11:54.432Z,191.50
2018-08-23T11:14:31.128Z,184.70
2018-08-23T11:17:07.933Z,205.77
2018-08-23T11:19:45.259Z,184.53
2018-08-23T11:22:17.828Z,183.87
2018-08-23T11:24:50.331Z,185.83
2018-08-23T11:27:22.747Z,186.70
2018-08-23T11:29:55.101Z,182.90
2018-08-23T11:32:27.298Z,195.80
2018-08-23T11:34:59.930Z,182.33
2018-08-23T11:37:32.393Z,188.43
2018-08-23T11:40:04.655Z,186.77
2018-08-23T11:42:36.914Z,187.43
2018-08-23T11:45:09.420Z,182.67
2018-08-23T11:47:41.928Z,179.67
2018-08-23T11:50:14.423Z,172.10
2018-08-23T11:52:46.545Z,175.43
2018-08-23T11:55:18.999Z,171.37
2018-08-23T11:57:52.008Z,170.67
2018-08-23T12:00:24.525Z,170.37
2018-08-23T12:02:57.617Z,160.00
2018-08-23T12:05:29.940Z,156.87
2018-08-23T12:08:02.308Z,152.43
2018-08-23T12:10:35.108Z,152.17
2018-08-23T12:13:07.502Z,140.17
2018-08-23T12:15:40.020Z,148.93
2018-08-23T12:18:12.871Z,142.03
2018-08-23T12:20:45.403Z,145.73
2018-08-23T12:23:17.835Z,133.20
2018-08-23T12:25:50.248Z,131.40
2018-08-23T12:28:27.243Z,137.53
2018-08-23T12:30:59.501Z,138.67
2018-08-23T12:33:31.849Z,126.90
2018-08-23T12:36:07.280Z,132.47
2018-08-23T12:38:44.447Z,122.37
2018-08-23T12:41:21.608Z,131.83
2018-08-23T12:43:54.100Z,121.80
2018-08-23T12:46:26.875Z,121.33
2018-08-23T12:48:59.908Z,114.63
2018-08-23T12:51:32.119Z,112.50
2018-08-23T12:54:04.559Z,118.10
2018-08-23T12:56:36.945Z,111.40
2018-08-23T12:59:09.538Z,113.50
2018-08-23T13:01:41.912Z,99.73
2018-08-23T13:04:14.162Z,111.70
2018-08-23T13:06:46.722Z,108.43
2018-08-23T13:09:19.293Z,108.03
2018-08-23T13:11:51.636Z,110.43
2018-08-23T13:14:23.768Z,107.63
2018-08-23T13:16:56.117Z,106.20
2018-08-23T13:19:28.701Z,108.80
2018-08-23T13:22:04.135Z,110.00
2018-08-23T13:24:41.137Z,102.53
2018-08-23T13:27:13.384Z,104.07
2018-08-23T13:29:45.932Z,99.23
2018-08-23T13:32:18.520Z,107.80
2018-08-23T13:34:50.960Z,105.07
2018-08-23T13:37:23.692Z,102.37
2018-08-23T13:39:56.325Z,105.90
2018-08-23T13:42:28.650Z,98.50
2018-08-23T13:45:01.293Z,98.93
2018-08-23T13:47:33.739Z,92.40
2018-08-23T13:50:07.416Z,91.10
2018-08-23T13:52:39.609Z,96.43
2018-08-23T13:55:11.793Z,91.73
2018-08-23T13:57:44.315Z,87.43
2018-08-23T14:00:20.902Z,92.90
2018-08-23T14:02:53.028Z,87.67
2018-08-23T14:05:25.253Z,87.13
2018-08-23T14:07:57.883Z,95.90
2018-08-23T14:10:30.108Z,92.27
2018-08-23T14:13:02.317Z,87.53
2018-08-23T14:15:39.031Z,84.60
2018-08-23T14:18:11.390Z,93.43
2018-08-23T14:20:43.789Z,88.67
2018-08-23T14:23:16.336Z,81.27
2018-08-23T14:25:48.560Z,103.03
2018-08-23T14:28:21.012Z,84.10
2018-08-23T14:30:53.351Z,85.33
2018-08-23T14:33:25.601Z,91.00
2018-08-23T14:35:57.993Z,82.83
2018-08-23T14:38:30.320Z,78.50
2018-08-23T14:41:02.624Z,76.03
2018-08-23T14:43:34.968Z,82.20
2018-08-23T14:46:11.719Z,77.70
2018-08-23T14:48:44.090Z,67.10
2018-08-23T14:51:19.093Z,69.03
2018-08-23T14:53:51.829Z,65.57
2018-08-23T14:56:28.867Z,56.13
2018-08-23T14:59:01.378Z,56.43
2018-08-23T15:01:33.697Z,57.80
2018-08-23T15:04:06.386Z,53.83
2018-08-23T15:06:38.709Z,58.57
2018-08-23T15:09:11.136Z,56.13
2018-08-23T15:11:43.357Z,56.50
2018-08-23T15:14:15.995Z,58.33
2018-08-23T15:16:48.512Z,52.07
2018-08-23T15:19:21.079Z,58.93
2018-08-23T15:21:53.929Z,55.20
2018-08-23T15:24:26.339Z,56.77
2018-08-23T15:26:58.949Z,65.30
2018-08-23T15:29:31.286Z,58.47
2018-08-23T15:32:03.628Z,62.10
2018-08-23T15:34:35.841Z,58.97
2018-08-23T15:37:08.599Z,68.20
2018-08-23T15:39:42.020Z,59.20
2018-08-23T15:42:14.716Z,67.40
2018-08-23T15:44:46.927Z,68.07
2018-08-23T15:47:19.526Z,74.93
2018-08-23T15:49:52.149Z,70.97
2018-08-23T15:52:24.328Z,68.10
2018-08-23T15:54:56.881Z,65.67
2018-08-23T15:57:29.205Z,53.80
2018-08-23T16:00:01.602Z,49.90
2018-08-23T16:02:33.728Z,48.10
2018-08-23T16:05:06.230Z,43.57
2018-08-23T16:07:38.621Z,44.23
2018-08-23T16:10:11.765Z,44.40
2018-08-23T16:12:44.281Z,39.63
2018-08-23T16:15:22.564Z,35.83
2018-08-23T16:18:03.797Z,35.67
2018-08-23T16:20:40.509Z,36.73
2018-08-23T16:23:13.810Z,38.67
2018-08-23T16:25:46.367Z,45.57
2018-08-23T16:28:18.867Z,36.70
2018-08-23T16:30:51.077Z,32.17
2018-08-23T16:33:23.392Z,28.10
2018-08-23T16:35:55.556Z,23.43
2018-08-23T16:38:27.676Z,26.23
2018-08-23T16:41:00.276Z,26.00
2018-08-23T16:43:32.597Z,26.77
2018-08-23T16:46:04.994Z,26.33
2018-08-23T16:48:37.508Z,23.63
2018-08-23T16:51:09.936Z,23.93
2018-08-23T16:53:42.700Z,23.60
2018-08-23T16:56:14.878Z,25.33
2018-08-23T16:58:47.452Z,25.87
2018-08-23T17:01:19.577Z,27.53
2018-08-23T17:03:55.119Z,40.43
2018-08-23T17:06:29.143Z,38.27
2018-08-23T17:09:01.547Z,39.27
2018-08-23T17:11:33.865Z,42.93
2018-08-23T17:14:06.133Z,41.57
2018-08-23T17:16:43.294Z,42.40
2018-08-23T17:19:15.552Z,45.10
2018-08-23T17:21:47.956Z,46.93
2018-08-23T17:24:20.380Z,42.60
2018-08-23T17:26:53.145Z,39.33
2018-08-23T17:29:25.905Z,39.17
2018-08-23T17:31:58.151Z,41.50
2018-08-23T17:34:31.389Z,44.07
2018-08-23T17:37:03.739Z,42.90
2018-08-23T17:39:36.239Z,43.40
2018-08-23T17:42:08.589Z,40.40
2018-08-23T17:44:41.362Z,44.50
2018-08-23T17:47:17.213Z,52.03
2018-08-23T17:49:49.934Z,49.20
2018-08-23T17:52:22.580Z,55.03
2018-08-23T17:54:55.044Z,51.33
2018-08-23T17:57:27.336Z,52.67
2018-08-23T17:59:59.527Z,58.93
2018-08-23T18:02:31.915Z,55.93
2018-08-23T18:05:04.899Z,61.23
2018-08-23T18:07:37.948Z,58.10
2018-08-23T18:10:10.496Z,67.73
2018-08-23T18:12:42.606Z,79.67
2018-08-23T18:15:15.022Z,79.50
2018-08-23T18:17:47.535Z,83.50
2018-08-23T18:20:20.076Z,87.13
2018-08-23T18:22:52.635Z,85.40
2018-08-23T18:25:25.833Z,88.77
2018-08-23T18:27:58.277Z,83.40
2018-08-23T18:30:30.345Z,87.77
2018-08-23T18:33:02.991Z,87.13
2018-08-23T18:35:35.374Z,95.43
2018-08-23T18:38:07.631Z,89.43
2018-08-23T18:40:40.166Z,92.10
2018-08-23T18:43:12.624Z,77.70
2018-08-23T18:45:44.611Z,73.77
2018-08-23T18:48:17.380Z,76.50
2018-08-23T18:50:49.815Z,61.97
2018-08-23T18:53:22.363Z,70.17
2018-08-23T18:55:54.953Z,60.10
2018-08-23T18:58:27.429Z,74.57
2018-08-23T19:00:59.584Z,52.13
2018-08-23T19:03:31.919Z,65.70
2018-08-23T19:06:04.748Z,67.10
2018-08-23T19:08:37.061Z,72.87
2018-08-23T19:11:09.560Z,73.77
2018-08-23T19:13:42.208Z,52.60
2018-08-23T19:16:19.081Z,44.07
2018-08-23T19:18:51.319Z,43.17
2018-08-23T19:21:23.719Z,44.03
2018-08-23T19:23:56.375Z,34.60
2018-08-23T19:26:28.963Z,41.30
2018-08-23T19:29:01.377Z,56.77
2018-08-23T19:31:33.929Z,42.77
2018-08-23T19:34:06.323Z,30.40
2018-08-23T19:36:38.576Z,22.43
2018-08-23T19:39:14.166Z,28.53
2018-08-23T19:41:46.430Z,25.63
2018-08-23T19:44:18.843Z,16.70
2018-08-23T19:46:55.935Z,18.70
2018-08-23T19:49:32.565Z,19.50
2018-08-23T19:52:04.929Z,20.33
2018-08-23T19:54:37.261Z,27.40
2018-08-23T19:57:09.442Z,30.43
2018-08-23T19:59:41.554Z,31.73
2018-08-23T20:02:14.160Z,31.87
2018-08-23T20:04:46.940Z,36.33
2018-08-23T20:07:19.719Z,32.57
2018-08-23T20:09:52.052Z,27.13
2018-08-23T20:12:24.425Z,29.13
2018-08-23T20:14:56.746Z,28.20
2018-08-23T20:17:29.011Z,33.93
2018-08-23T20:20:01.363Z,30.77
2018-08-23T20:22:33.604Z,31.20
2018-08-23T20:25:06.050Z,30.50
2018-08-23T20:27:38.223Z,32.63
2018-08-23T20:30:10.596Z,31.27
2018-08-23T20:32:42.844Z,32.13
2018-08-23T20:35:15.433Z,29.97
2018-08-23T20:37:47.624Z,29.50
2018-08-23T20:40:19.771Z,29.17
2018-08-23T20:42:52.087Z,29.57
2018-08-23T20:45:24.281Z,32.77
2018-08-23T20:47:56.491Z,32.70
2018-08-23T20:50:28.993Z,30.33
2018-08-23T20:53:01.827Z,33.20
2018-08-23T20:55:34.273Z,29.60
2018-08-23T20:58:06.572Z,30.67
2018-08-23T21:00:38.950Z,33.27
2018-08-23T21:03:11.164Z,35.80
2018-08-23T21:05:44.004Z,33.60
2018-08-23T21:08:16.613Z,35.10
2018-08-23T21:10:48.737Z,33.07
2018-08-23T21:13:20.944Z,36.97
2018-08-23T21:15:53.126Z,38.90
2018-08-23T21:18:25.907Z,39.40
2018-08-23T21:20:58.257Z,35.93
2018-08-23T21:23:31.020Z,33.37
2018-08-23T21:26:03.675Z,37.90
2018-08-23T21:28:35.758Z,33.93
2018-08-23T21:31:08.178Z,30.13
2018-08-23T21:33:41.197Z,33.60
2018-08-23T21:36:13.382Z,22.93
2018-08-23T21:38:45.623Z,14.93
2018-08-23T21:41:17.856Z,15.97
2018-08-23T21:43:50.403Z,17.23
2018-08-23T21:46:22.924Z,14.40
2018-08-23T21:48:55.251Z,11.40
2018-08-23T21:51:27.615Z,10.70
2018-08-23T21:53:59.917Z,11.77
2018-08-23T21:56:32.363Z,12.17
2018-08-23T21:59:04.462Z,14.40
2018-08-23T22:01:37.440Z,15.53
2018-08-23T22:04:09.659Z,17.20
2018-08-23T22:06:41.984Z,17.23
2018-08-23T22:09:14.447Z,16.93
2018-08-23T22:11:46.928Z,16.23
2018-08-23T22:14:19.493Z,20.03
2018-08-23T22:16:52.483Z,17.30
2018-08-23T22:19:24.513Z,14.50
2018-08-23T22:21:57.192Z,16.53
2018-08-23T22:24:29.661Z,15.93
2018-08-23T22:27:01.984Z,15.33
2018-08-23T22:29:34.565Z,13.50
2018-08-23T22:32:06.896Z,13.70
2018-08-23T22:34:39.308Z,13.30
2018-08-23T22:37:11.669Z,12.33
2018-08-23T22:39:44.449Z,9.70
2018-08-23T22:42:16.887Z,10.13
2018-08-23T22:44:49.307Z,7.57
2018-08-23T22:47:21.870Z,8.07
2018-08-23T22:49:54.462Z,8.57
2018-08-23T22:52:26.844Z,11.13
2018-08-23T22:54:59.086Z,6.67
2018-08-23T22:57:31.822Z,6.63
2018-08-23T23:00:04.400Z,5.20
2018-08-23T23:02:40.438Z,5.03
2018-08-23T23:05:12.793Z,6.70
2018-08-23T23:07:45.753Z,5.00
2018-08-23T23:10:18.263Z,6.80
2018-08-23T23:12:50.759Z,6.13
2018-08-23T23:15:27.172Z,8.50
2018-08-23T23:17:59.583Z,6.10
2018-08-23T23:20:31.695Z,6.30
2018-08-23T23:23:04.547Z,5.20
2018-08-23T23:25:37.075Z,6.17
2018-08-23T23:28:10.068Z,7.10
2018-08-23T23:30:42.296Z,7.53
2018-08-23T23:33:14.813Z,3.73
2018-08-23T23:35:47.116Z,6.80
2018-08-23T23:38:19.427Z,8.40
2018-08-23T23:40:51.631Z,5.63
2018-08-23T23:43:23.978Z,6.40
2018-08-23T23:45:56.455Z,5.00
2018-08-23T23:48:28.903Z,4.00
2018-08-23T23:51:01.932Z,3.90
2018-08-23T23:53:34.312Z,5.40
2018-08-23T23:56:06.554Z,4.47
2018-08-23T23:58:38.638Z,5.40
